sensor_id;sensor_type;location;lat;lon;timestamp;pressure;altitude;pressure_sealevel;temperature;humidity
18504;BME280;9381;54.244;10.074;2023-04-01T00:02:27;99083.69;;;10.96;100.00
18504;BME280;9381;54.244;10.074;2023-04-01T00:07:28;99083.69;;;10.96;100.00
18504;BME280;9381;54.244;10.074;2023-04-01T00:12:28;99090.72;;;10.92;100.00
18504;BME280;9381;54.244;10.074;2023-04-01T00:17:28;99095.16;;;10.76;100.00
18504;BME280;9381;54.244;10.074;2023-04-01T00:22:29;99105.41;;;10.74;100.00
18504;BME280;9381;54.244;10.074;2023-04-01T00:27:29;99103.16;;;10.66;100.00
18504;BME280;9381;54.244;10.074;2023-04-01T00:32:30;99099.69;;;10.71;100.00
18504;BME280;9381;54.244;10.074;2023-04-01T00:37:34;99109.44;;;10.72;100.00
18504;BME280;9381;54.244;10.074;2023-04-01T00:42:35;99103.94;;;10.62;100.00
18504;BME280;9381;54.244;10.074;2023-04-01T00:47:35;99104.75;;;10.62;100.00
18504;BME280;9381;54.244;10.074;2023-04-01T00:52:36;99110.69;;;10.59;100.00
18504;BME280;9381;54.244;10.074;2023-04-01T00:57:37;99112.22;;;10.50;100.00
18504;BME280;9381;54.244;10.074;2023-04-01T01:02:42;99118.84;;;10.38;100.00
18504;BME280;9381;54.244;10.074;2023-04-01T01:18:27;99137.22;;;10.14;100.00
18504;BME280;9381;54.244;10.074;2023-04-01T01:40:07;99149.63;;;9.56;100.00
18504;BME280;9381;54.244;10.074;2023-04-01T01:45:09;99151.50;;;9.55;100.00
18504;BME280;9381;54.244;10.074;2023-04-01T01:50:13;99154.59;;;9.47;100.00
18504;BME280;9381;54.244;10.074;2023-04-01T01:55:27;99166.13;;;9.43;100.00
18504;BME280;9381;54.244;10.074;2023-04-01T02:00:28;99168.44;;;9.34;100.00
18504;BME280;9381;54.244;10.074;2023-04-01T02:05:29;99164.28;;;9.27;100.00
18504;BME280;9381;54.244;10.074;2023-04-01T02:10:35;99170.66;;;9.21;100.00
18504;BME280;9381;54.244;10.074;2023-04-01T02:15:41;99172.13;;;9.12;100.00
18504;BME280;9381;54.244;10.074;2023-04-01T02:20:44;99184.28;;;8.98;100.00
18504;BME280;9381;54.244;10.074;2023-04-01T02:25:45;99194.88;;;8.88;100.00
18504;BME280;9381;54.244;10.074;2023-04-01T02:30:47;99201.81;;;8.84;100.00
18504;BME280;9381;54.244;10.074;2023-04-01T02:35:49;99205.31;;;8.84;100.00
18504;BME280;9381;54.244;10.074;2023-04-01T02:40:57;99213.84;;;8.93;100.00
18504;BME280;9381;54.244;10.074;2023-04-01T02:45:57;99214.13;;;8.80;100.00
18504;BME280;9381;54.244;10.074;2023-04-01T02:50:58;99226.44;;;8.60;100.00
18504;BME280;9381;54.244;10.074;2023-04-01T02:55:58;99235.47;;;8.54;100.00
18504;BME280;9381;54.244;10.074;2023-04-01T03:00:58;99223.47;;;8.61;100.00
18504;BME280;9381;54.244;10.074;2023-04-01T03:06:05;99245.38;;;8.25;100.00
18504;BME280;9381;54.244;10.074;2023-04-01T03:11:06;99247.94;;;8.32;100.00
18504;BME280;9381;54.244;10.074;2023-04-01T03:16:07;99249.34;;;8.11;100.00
18504;BME280;9381;54.244;10.074;2023-04-01T03:21:33;99260.59;;;7.97;100.00
18504;BME280;9381;54.244;10.074;2023-04-01T03:26:33;99278.41;;;8.09;100.00
18504;BME280;9381;54.244;10.074;2023-04-01T03:31:34;99275.56;;;8.04;100.00
18504;BME280;9381;54.244;10.074;2023-04-01T03:36:34;99289.50;;;8.01;100.00
18504;BME280;9381;54.244;10.074;2023-04-01T03:41:36;99287.50;;;7.85;100.00
18504;BME280;9381;54.244;10.074;2023-04-01T03:46:37;99301.31;;;7.77;100.00
18504;BME280;9381;54.244;10.074;2023-04-01T03:51:39;99308.81;;;7.75;100.00
18504;BME280;9381;54.244;10.074;2023-04-01T03:56:40;99313.38;;;7.63;100.00
18504;BME280;9381;54.244;10.074;2023-04-01T04:01:40;99323.91;;;7.76;100.00
18504;BME280;9381;54.244;10.074;2023-04-01T04:06:40;99321.19;;;7.53;100.00
18504;BME280;9381;54.244;10.074;2023-04-01T04:11:41;99323.06;;;7.64;100.00
18504;BME280;9381;54.244;10.074;2023-04-01T04:16:41;99323.06;;;7.64;100.00
18504;BME280;9381;54.244;10.074;2023-04-01T04:21:42;99335.53;;;7.47;100.00
18504;BME280;9381;54.244;10.074;2023-04-01T04:26:42;99335.34;;;7.49;100.00
18504;BME280;9381;54.244;10.074;2023-04-01T04:31:42;99334.25;;;7.38;100.00
18504;BME280;9381;54.244;10.074;2023-04-01T04:36:44;99351.84;;;7.23;100.00
18504;BME280;9381;54.244;10.074;2023-04-01T04:41:45;99362.13;;;7.26;100.00
18504;BME280;9381;54.244;10.074;2023-04-01T04:46:45;99363.13;;;7.43;100.00
18504;BME280;9381;54.244;10.074;2023-04-01T04:51:45;99369.56;;;7.42;100.00
18504;BME280;9381;54.244;10.074;2023-04-01T04:56:46;99380.28;;;7.30;100.00
18504;BME280;9381;54.244;10.074;2023-04-01T05:01:46;99386.13;;;7.27;100.00
18504;BME280;9381;54.244;10.074;2023-04-01T05:06:46;99390.28;;;7.23;100.00
18504;BME280;9381;54.244;10.074;2023-04-01T05:11:46;99394.25;;;7.21;100.00
18504;BME280;9381;54.244;10.074;2023-04-01T05:16:47;99396.25;;;7.25;100.00
18504;BME280;9381;54.244;10.074;2023-04-01T05:21:47;99406.34;;;7.30;100.00
18504;BME280;9381;54.244;10.074;2023-04-01T05:26:47;99422.50;;;7.12;100.00
18504;BME280;9381;54.244;10.074;2023-04-01T05:31:47;99424.09;;;7.01;100.00
18504;BME280;9381;54.244;10.074;2023-04-01T05:36:48;99422.75;;;7.10;100.00
18504;BME280;9381;54.244;10.074;2023-04-01T05:41:48;99430.22;;;7.08;100.00
18504;BME280;9381;54.244;10.074;2023-04-01T05:46:48;99417.38;;;7.10;100.00
18504;BME280;9381;54.244;10.074;2023-04-01T05:51:49;99444.34;;;7.04;100.00
18504;BME280;9381;54.244;10.074;2023-04-01T05:56:49;99451.63;;;7.15;100.00
18504;BME280;9381;54.244;10.074;2023-04-01T06:01:50;99465.75;;;7.10;100.00
18504;BME280;9381;54.244;10.074;2023-04-01T06:06:50;99468.66;;;7.09;100.00
18504;BME280;9381;54.244;10.074;2023-04-01T06:17:20;99476.59;;;7.04;100.00
18504;BME280;9381;54.244;10.074;2023-04-01T06:22:49;99477.47;;;6.98;100.00
18504;BME280;9381;54.244;10.074;2023-04-01T06:28:16;99493.50;;;6.86;100.00
18504;BME280;9381;54.244;10.074;2023-04-01T06:44:07;99515.41;;;7.08;100.00
18504;BME280;9381;54.244;10.074;2023-04-01T06:49:38;99518.75;;;7.03;100.00
18504;BME280;9381;54.244;10.074;2023-04-01T06:54:49;99532.59;;;7.07;100.00
18504;BME280;9381;54.244;10.074;2023-04-01T06:59:54;99542.81;;;6.98;100.00
18504;BME280;9381;54.244;10.074;2023-04-01T07:04:57;99552.28;;;7.01;100.00
18504;BME280;9381;54.244;10.074;2023-04-01T07:10:00;99561.31;;;7.06;100.00
18504;BME280;9381;54.244;10.074;2023-04-01T07:15:13;99563.41;;;7.04;100.00
18504;BME280;9381;54.244;10.074;2023-04-01T07:20:32;99571.19;;;7.12;100.00
18504;BME280;9381;54.244;10.074;2023-04-01T07:25:39;99584.47;;;7.07;100.00
18504;BME280;9381;54.244;10.074;2023-04-01T07:36:10;99592.88;;;7.17;100.00
18504;BME280;9381;54.244;10.074;2023-04-01T07:41:50;99599.41;;;7.03;100.00
18504;BME280;9381;54.244;10.074;2023-04-01T07:46:57;99619.13;;;7.15;100.00
18504;BME280;9381;54.244;10.074;2023-04-01T07:52:08;99626.47;;;7.08;100.00
18504;BME280;9381;54.244;10.074;2023-04-01T07:57:22;99636.66;;;7.00;100.00
18504;BME280;9381;54.244;10.074;2023-04-01T08:08:11;99651.00;;;6.94;100.00
18504;BME280;9381;54.244;10.074;2023-04-01T08:13:25;99667.22;;;7.05;100.00
18504;BME280;9381;54.244;10.074;2023-04-01T08:23:33;99677.56;;;7.02;100.00
18504;BME280;9381;54.244;10.074;2023-04-01T08:28:44;99689.16;;;7.02;100.00
18504;BME280;9381;54.244;10.074;2023-04-01T08:33:47;99691.69;;;6.97;100.00
18504;BME280;9381;54.244;10.074;2023-04-01T08:38:51;99699.84;;;6.84;100.00
18504;BME280;9381;54.244;10.074;2023-04-01T09:00:33;99724.16;;;6.96;100.00
18504;BME280;9381;54.244;10.074;2023-04-01T09:10:56;99748.41;;;6.89;100.00
18504;BME280;9381;54.244;10.074;2023-04-01T09:16:24;99749.63;;;6.93;100.00
18504;BME280;9381;54.244;10.074;2023-04-01T09:22:02;99762.59;;;6.65;100.00
18504;BME280;9381;54.244;10.074;2023-04-01T09:27:26;99780.56;;;6.65;100.00
18504;BME280;9381;54.244;10.074;2023-04-01T09:37:46;99793.78;;;6.66;100.00
18504;BME280;9381;54.244;10.074;2023-04-01T10:05:12;99847.38;;;6.48;100.00
18504;BME280;9381;54.244;10.074;2023-04-01T10:26:19;99878.34;;;6.57;100.00
18504;BME280;9381;54.244;10.074;2023-04-01T10:41:55;99891.66;;;6.20;100.00
18504;BME280;9381;54.244;10.074;2023-04-01T10:52:50;99905.69;;;6.28;100.00
18504;BME280;9381;54.244;10.074;2023-04-01T11:03:38;99916.03;;;6.18;100.00
18504;BME280;9381;54.244;10.074;2023-04-01T11:09:23;99930.47;;;6.37;100.00
18504;BME280;9381;54.244;10.074;2023-04-01T11:14:42;99929.44;;;6.05;100.00
18504;BME280;9381;54.244;10.074;2023-04-01T11:20:48;99951.78;;;5.99;100.00
18504;BME280;9381;54.244;10.074;2023-04-01T11:52:09;99987.50;;;6.19;100.00
18504;BME280;9381;54.244;10.074;2023-04-01T12:08:06;100021.38;;;6.20;100.00
18504;BME280;9381;54.244;10.074;2023-04-01T12:13:21;100026.72;;;6.07;100.00
18504;BME280;9381;54.244;10.074;2023-04-01T12:34:28;100058.75;;;6.28;100.00
18504;BME280;9381;54.244;10.074;2023-04-01T12:50:18;100082.72;;;6.36;100.00
18504;BME280;9381;54.244;10.074;2023-04-01T12:55:38;100106.06;;;6.42;100.00
18504;BME280;9381;54.244;10.074;2023-04-01T13:16:25;100133.34;;;6.26;100.00
18504;BME280;9381;54.244;10.074;2023-04-01T13:21:51;100124.84;;;6.23;100.00
18504;BME280;9381;54.244;10.074;2023-04-01T13:27:02;100136.63;;;6.28;100.00
18504;BME280;9381;54.244;10.074;2023-04-01T13:37:52;100149.47;;;6.39;100.00
18504;BME280;9381;54.244;10.074;2023-04-01T13:43:02;100158.97;;;6.48;100.00
18504;BME280;9381;54.244;10.074;2023-04-01T14:04:44;100196.19;;;5.91;100.00
18504;BME280;9381;54.244;10.074;2023-04-01T14:10:23;100196.41;;;5.96;100.00
18504;BME280;9381;54.244;10.074;2023-04-01T14:16:04;100209.78;;;5.83;100.00
18504;BME280;9381;54.244;10.074;2023-04-01T14:21:20;100215.25;;;5.75;100.00
18504;BME280;9381;54.244;10.074;2023-04-01T14:27:04;100233.38;;;5.67;100.00
18504;BME280;9381;54.244;10.074;2023-04-01T14:42:41;100248.22;;;5.90;100.00
18504;BME280;9381;54.244;10.074;2023-04-01T14:47:53;100263.34;;;6.04;100.00
18504;BME280;9381;54.244;10.074;2023-04-01T14:58:10;100279.63;;;5.69;99.69
18504;BME280;9381;54.244;10.074;2023-04-01T15:03:22;100287.16;;;5.80;100.00
18504;BME280;9381;54.244;10.074;2023-04-01T15:09:30;100305.38;;;5.63;100.00
18504;BME280;9381;54.244;10.074;2023-04-01T15:19:56;100310.75;;;5.43;100.00
18504;BME280;9381;54.244;10.074;2023-04-01T15:25:23;100325.56;;;5.80;98.68
18504;BME280;9381;54.244;10.074;2023-04-01T15:41:05;100345.50;;;5.51;97.54
18504;BME280;9381;54.244;10.074;2023-04-01T15:51:25;100360.44;;;5.59;98.13
18504;BME280;9381;54.244;10.074;2023-04-01T16:02:01;100385.38;;;5.54;96.50
18504;BME280;9381;54.244;10.074;2023-04-01T16:07:21;100404.91;;;5.48;95.29
18504;BME280;9381;54.244;10.074;2023-04-01T16:12:56;100391.91;;;5.72;96.20
18504;BME280;9381;54.244;10.074;2023-04-01T16:18:20;100399.97;;;5.72;95.26
18504;BME280;9381;54.244;10.074;2023-04-01T16:29:38;100416.06;;;5.93;94.98
18504;BME280;9381;54.244;10.074;2023-04-01T16:34:47;100435.19;;;5.63;94.96
18504;BME280;9381;54.244;10.074;2023-04-01T16:45:38;100460.81;;;5.30;91.48
18504;BME280;9381;54.244;10.074;2023-04-01T17:01:12;100486.06;;;5.21;90.21
18504;BME280;9381;54.244;10.074;2023-04-01T17:06:31;100504.78;;;5.00;89.90
18504;BME280;9381;54.244;10.074;2023-04-01T17:27:26;100553.38;;;4.97;91.83
18504;BME280;9381;54.244;10.074;2023-04-01T17:32:54;100567.16;;;4.94;89.41
18504;BME280;9381;54.244;10.074;2023-04-01T17:43:22;100582.50;;;4.71;89.35
18504;BME280;9381;54.244;10.074;2023-04-01T17:48:51;100594.19;;;4.70;89.76
18504;BME280;9381;54.244;10.074;2023-04-01T17:54:21;100609.53;;;4.61;90.68
18504;BME280;9381;54.244;10.074;2023-04-01T17:59:36;100615.34;;;4.65;90.49
18504;BME280;9381;54.244;10.074;2023-04-01T18:10:12;100643.66;;;4.82;89.71
18504;BME280;9381;54.244;10.074;2023-04-01T18:15:24;100652.47;;;4.68;90.22
18504;BME280;9381;54.244;10.074;2023-04-01T18:20:54;100666.00;;;4.52;91.84
18504;BME280;9381;54.244;10.074;2023-04-01T18:26:06;100685.38;;;4.62;91.07
18504;BME280;9381;54.244;10.074;2023-04-01T18:31:15;100687.19;;;4.39;92.83
18504;BME280;9381;54.244;10.074;2023-04-01T18:37:12;100699.50;;;4.48;92.74
18504;BME280;9381;54.244;10.074;2023-04-01T18:42:03;100709.53;;;4.54;92.27
18504;BME280;9381;54.244;10.074;2023-04-01T18:52:45;100729.16;;;4.46;92.91
18504;BME280;9381;54.244;10.074;2023-04-01T18:57:50;100738.69;;;4.49;92.53
18504;BME280;9381;54.244;10.074;2023-04-01T19:03:12;100737.38;;;4.45;93.46
18504;BME280;9381;54.244;10.074;2023-04-01T19:08:35;100745.63;;;4.35;94.31
18504;BME280;9381;54.244;10.074;2023-04-01T19:25:10;100771.56;;;4.35;93.79
18504;BME280;9381;54.244;10.074;2023-04-01T19:46:14;100806.59;;;4.25;94.69
18504;BME280;9381;54.244;10.074;2023-04-01T19:51:25;100817.28;;;4.25;94.10
18504;BME280;9381;54.244;10.074;2023-04-01T19:56:38;100825.22;;;4.11;94.52
18504;BME280;9381;54.244;10.074;2023-04-01T20:01:53;100833.91;;;4.13;93.71
18504;BME280;9381;54.244;10.074;2023-04-01T20:07:13;100836.78;;;4.03;94.31
18504;BME280;9381;54.244;10.074;2023-04-01T20:12:24;100846.81;;;4.01;95.15
18504;BME280;9381;54.244;10.074;2023-04-01T20:17:44;100857.34;;;4.03;93.95
18504;BME280;9381;54.244;10.074;2023-04-01T20:27:52;100878.41;;;4.14;94.13
18504;BME280;9381;54.244;10.074;2023-04-01T20:33:18;100891.47;;;4.09;94.18
18504;BME280;9381;54.244;10.074;2023-04-01T20:44:13;100909.88;;;4.04;92.63
18504;BME280;9381;54.244;10.074;2023-04-01T20:49:42;100920.78;;;3.94;92.76
18504;BME280;9381;54.244;10.074;2023-04-01T21:00:02;100936.63;;;4.04;90.22
18504;BME280;9381;54.244;10.074;2023-04-01T21:20:49;100966.41;;;4.25;85.66
18504;BME280;9381;54.244;10.074;2023-04-01T21:31:02;100987.47;;;4.12;86.40
18504;BME280;9381;54.244;10.074;2023-04-01T21:36:19;100991.81;;;4.13;85.21
18504;BME280;9381;54.244;10.074;2023-04-01T21:57:55;101028.63;;;4.03;86.25
18504;BME280;9381;54.244;10.074;2023-04-01T22:03:27;101031.66;;;4.00;86.88
18504;BME280;9381;54.244;10.074;2023-04-01T22:13:58;101047.03;;;4.06;86.41
18504;BME280;9381;54.244;10.074;2023-04-01T22:19:22;101053.38;;;3.97;87.17
18504;BME280;9381;54.244;10.074;2023-04-01T22:24:51;101057.06;;;3.80;89.16
18504;BME280;9381;54.244;10.074;2023-04-01T22:30:10;101069.13;;;4.00;88.13
18504;BME280;9381;54.244;10.074;2023-04-01T22:35:30;101074.78;;;3.81;89.12
18504;BME280;9381;54.244;10.074;2023-04-01T22:41:03;101091.81;;;3.72;89.49
18504;BME280;9381;54.244;10.074;2023-04-01T22:46:34;101094.50;;;3.72;89.19
18504;BME280;9381;54.244;10.074;2023-04-01T22:56:56;101101.88;;;3.94;87.68
18504;BME280;9381;54.244;10.074;2023-04-01T23:02:03;101118.59;;;3.88;87.57
18504;BME280;9381;54.244;10.074;2023-04-01T23:07:23;101126.00;;;4.02;88.07
18504;BME280;9381;54.244;10.074;2023-04-01T23:12:26;101135.66;;;3.79;88.45
18504;BME280;9381;54.244;10.074;2023-04-01T23:17:45;101132.47;;;3.91;87.92
18504;BME280;9381;54.244;10.074;2023-04-01T23:23:03;101142.03;;;4.02;87.42
18504;BME280;9381;54.244;10.074;2023-04-01T23:38:23;101168.66;;;4.03;86.21
18504;BME280;9381;54.244;10.074;2023-04-01T23:43:27;101175.50;;;3.98;86.13
18504;BME280;9381;54.244;10.074;2023-04-01T23:48:35;101182.31;;;3.84;86.99
18504;BME280;9381;54.244;10.074;2023-04-01T23:53:43;101186.81;;;3.84;86.67
18504;BME280;9381;54.244;10.074;2023-04-01T23:58:48;101196.03;;;3.89;86.62
